createdAt,value
2022-09-14T00:01:30.379Z,6.95
2022-09-14T00:04:00.312Z,6.38
2022-09-14T00:06:29.072Z,7.13
2022-09-14T00:08:59.118Z,8.00
2022-09-14T00:11:31.032Z,6.95
2022-09-14T00:14:00.327Z,7.28
2022-09-14T00:16:30.366Z,7.00
2022-09-14T00:19:00.538Z,6.63
2022-09-14T00:21:29.171Z,6.97
2022-09-14T00:23:57.026Z,8.43
2022-09-14T00:26:25.792Z,7.22
2022-09-14T00:28:57.094Z,9.20
2022-09-14T00:31:26.244Z,6.72
2022-09-14T00:33:54.970Z,5.72
2022-09-14T00:36:25.802Z,7.00
2022-09-14T00:38:56.519Z,5.60
2022-09-14T00:41:27.390Z,8.55
2022-09-14T00:43:59.439Z,5.90
2022-09-14T00:46:30.336Z,7.78
2022-09-14T00:49:00.880Z,7.10
2022-09-14T00:51:31.153Z,6.07
2022-09-14T00:53:59.110Z,9.52
2022-09-14T00:56:27.304Z,5.70
2022-09-14T00:58:59.482Z,5.88
2022-09-14T01:01:28.431Z,6.68
2022-09-14T01:03:56.505Z,7.30
2022-09-14T01:06:37.355Z,5.63
2022-09-14T01:09:19.236Z,7.28
2022-09-14T01:11:59.567Z,7.22
2022-09-14T01:14:39.025Z,6.05
2022-09-14T01:17:12.289Z,6.32
2022-09-14T01:19:59.724Z,5.88
2022-09-14T01:22:36.909Z,5.90
2022-09-14T01:25:14.652Z,6.50
2022-09-14T01:27:45.883Z,6.80
2022-09-14T01:30:17.334Z,9.15
2022-09-14T01:32:52.813Z,6.90
2022-09-14T01:35:27.292Z,8.77
2022-09-14T01:37:59.128Z,7.10
2022-09-14T01:40:31.546Z,6.88
2022-09-14T01:43:04.984Z,8.65
2022-09-14T01:45:34.842Z,7.20
2022-09-14T01:48:06.720Z,7.13
2022-09-14T01:50:41.606Z,6.38
2022-09-14T01:53:13.519Z,7.50
2022-09-14T01:55:44.770Z,8.20
2022-09-14T01:58:19.568Z,6.35
2022-09-14T02:00:50.019Z,7.22
2022-09-14T02:03:23.824Z,7.43
2022-09-14T02:05:58.733Z,6.68
2022-09-14T02:08:29.051Z,7.30
2022-09-14T02:10:57.691Z,6.80
2022-09-14T02:13:27.801Z,7.43
2022-09-14T02:15:55.945Z,7.60
2022-09-14T02:18:23.952Z,10.23
2022-09-14T02:20:55.603Z,9.40
2022-09-14T02:23:24.162Z,7.68
2022-09-14T02:25:52.146Z,13.43
2022-09-14T02:28:21.881Z,7.45
2022-09-14T02:31:04.370Z,7.35
2022-09-14T02:33:40.872Z,7.72
2022-09-14T02:36:14.907Z,7.95
2022-09-14T02:38:53.534Z,7.15
2022-09-14T02:41:33.028Z,12.13
2022-09-14T02:44:07.394Z,7.03
2022-09-14T02:46:43.556Z,7.53
2022-09-14T02:49:19.712Z,7.50
2022-09-14T02:51:54.711Z,9.63
2022-09-14T02:54:27.293Z,9.03
2022-09-14T02:56:55.165Z,8.43
2022-09-14T02:59:23.013Z,9.57
2022-09-14T03:01:52.544Z,7.50
2022-09-14T03:04:20.523Z,9.65
2022-09-14T03:06:48.405Z,7.07
2022-09-14T03:09:16.267Z,9.95
2022-09-14T03:11:44.105Z,9.57
2022-09-14T03:14:12.379Z,10.27
2022-09-14T03:16:40.747Z,6.88
2022-09-14T03:19:10.780Z,8.32
2022-09-14T03:21:40.137Z,9.82
2022-09-14T03:24:08.272Z,7.53
2022-09-14T03:26:38.574Z,6.10
2022-09-14T03:29:07.727Z,7.30
2022-09-14T03:31:36.394Z,7.13
2022-09-14T03:34:04.499Z,7.97
2022-09-14T03:36:33.758Z,9.43
2022-09-14T03:39:02.835Z,8.85
2022-09-14T03:41:31.004Z,8.13
2022-09-14T03:43:58.893Z,12.95
2022-09-14T03:46:27.322Z,9.10
2022-09-14T03:48:56.107Z,8.38
2022-09-14T03:51:24.752Z,8.20
2022-09-14T03:53:54.488Z,7.97
2022-09-14T03:56:24.214Z,9.85
2022-09-14T03:58:52.359Z,10.88
2022-09-14T04:01:22.180Z,10.13
2022-09-14T04:03:50.656Z,11.50
2022-09-14T04:06:20.018Z,11.45
2022-09-14T04:08:48.607Z,12.98
2022-09-14T04:11:21.102Z,13.00
2022-09-14T04:13:49.966Z,10.77
2022-09-14T04:16:20.575Z,12.88
2022-09-14T04:18:48.724Z,10.15
2022-09-14T04:21:18.736Z,8.52
2022-09-14T04:26:37.006Z,14.05
2022-09-14T04:29:05.036Z,13.05
2022-09-14T04:31:34.174Z,10.52
2022-09-14T04:34:02.177Z,10.35
2022-09-14T04:36:31.409Z,11.75
2022-09-14T04:39:01.060Z,16.70
2022-09-14T04:41:30.341Z,12.52
2022-09-14T04:44:00.476Z,10.68
2022-09-14T04:46:30.242Z,12.93
2022-09-14T04:48:58.652Z,11.38
2022-09-14T04:51:29.879Z,11.70
2022-09-14T04:53:59.545Z,11.93
2022-09-14T04:56:28.799Z,13.65
2022-09-14T04:58:59.923Z,11.38
2022-09-14T05:01:30.441Z,11.88
2022-09-14T05:03:58.956Z,10.57
2022-09-14T05:06:28.833Z,12.43
2022-09-14T05:08:57.059Z,12.82
2022-09-14T05:11:27.123Z,11.23
2022-09-14T05:13:56.758Z,11.30
2022-09-14T05:16:27.873Z,12.90
2022-09-14T05:18:57.781Z,12.60
2022-09-14T05:21:26.459Z,11.63
2022-09-14T05:23:55.841Z,10.70
2022-09-14T05:26:24.520Z,12.68
2022-09-14T05:28:54.898Z,12.82
2022-09-14T05:31:24.069Z,16.00
2022-09-14T05:33:53.833Z,9.77
2022-09-14T05:36:21.928Z,11.65
2022-09-14T05:38:50.078Z,11.98
2022-09-14T05:41:18.538Z,14.55
2022-09-14T05:43:46.667Z,12.45
2022-09-14T05:46:16.181Z,19.05
2022-09-14T05:48:44.413Z,18.52
2022-09-14T05:51:15.906Z,14.23
2022-09-14T05:53:44.005Z,15.20
2022-09-14T05:56:13.620Z,11.70
2022-09-14T05:58:42.745Z,19.90
2022-09-14T06:01:12.229Z,18.50
2022-09-14T06:03:40.783Z,15.43
2022-09-14T06:06:11.216Z,15.13
2022-09-14T06:08:41.220Z,12.43
2022-09-14T06:11:11.801Z,15.95
2022-09-14T06:13:39.872Z,12.13
2022-09-14T06:16:09.887Z,14.20
2022-09-14T06:18:39.222Z,15.88
2022-09-14T06:21:08.268Z,13.98
2022-09-14T06:23:36.757Z,13.93
2022-09-14T06:26:07.097Z,14.10
2022-09-14T06:28:35.773Z,15.48
2022-09-14T06:31:08.062Z,16.95
2022-09-14T06:33:36.443Z,16.02
2022-09-14T06:36:09.187Z,12.43
2022-09-14T06:38:37.362Z,15.02
2022-09-14T06:41:09.128Z,13.70
2022-09-14T06:43:39.843Z,12.50
2022-09-14T06:46:11.927Z,14.40
2022-09-14T06:48:41.986Z,12.45
2022-09-14T06:51:14.220Z,10.43
2022-09-14T06:53:42.573Z,14.27
2022-09-14T06:56:12.305Z,9.88
2022-09-14T06:58:40.301Z,10.88
2022-09-14T07:01:12.233Z,9.45
2022-09-14T07:03:41.208Z,10.88
2022-09-14T07:06:11.000Z,9.88
2022-09-14T07:08:39.937Z,9.07
2022-09-14T07:11:09.474Z,10.65
2022-09-14T07:13:39.137Z,12.18
2022-09-14T07:16:09.141Z,9.27
2022-09-14T07:18:37.810Z,10.23
2022-09-14T07:21:07.873Z,9.40
2022-09-14T07:23:38.137Z,9.68
2022-09-14T07:26:08.370Z,7.95
2022-09-14T07:28:39.238Z,9.88
2022-09-14T07:31:17.292Z,9.63
2022-09-14T07:33:45.272Z,9.10
2022-09-14T07:36:14.370Z,8.20
2022-09-14T07:38:52.699Z,8.50
2022-09-14T07:41:21.709Z,8.70
2022-09-14T07:43:51.780Z,9.93
2022-09-14T07:46:20.486Z,9.00
2022-09-14T07:48:50.145Z,8.25
2022-09-14T07:51:18.139Z,7.70
2022-09-14T07:53:46.635Z,9.23
2022-09-14T07:56:16.673Z,8.68
2022-09-14T07:58:45.094Z,5.97
2022-09-14T08:01:17.907Z,7.45
2022-09-14T08:03:48.985Z,7.95
2022-09-14T08:06:19.054Z,6.53
2022-09-14T08:08:49.002Z,6.63
2022-09-14T08:11:19.468Z,6.50
2022-09-14T08:13:50.891Z,7.70
2022-09-14T08:16:21.574Z,6.15
2022-09-14T08:18:53.689Z,4.82
2022-09-14T08:21:21.696Z,7.57
2022-09-14T08:23:49.546Z,5.88
2022-09-14T08:26:19.269Z,5.18
2022-09-14T08:28:48.915Z,5.68
2022-09-14T08:31:23.041Z,6.82
2022-09-14T08:33:54.902Z,6.57
2022-09-14T08:36:24.384Z,4.65
2022-09-14T08:38:52.274Z,7.35
2022-09-14T08:41:28.902Z,4.85
2022-09-14T08:44:00.471Z,4.88
2022-09-14T08:46:33.013Z,3.35
2022-09-14T08:49:02.335Z,3.92
2022-09-14T08:51:30.620Z,3.22
2022-09-14T08:54:00.237Z,3.75
2022-09-14T08:56:32.772Z,4.50
2022-09-14T08:59:24.228Z,4.63
2022-09-14T09:02:05.027Z,5.00
2022-09-14T09:04:52.800Z,5.95
2022-09-14T09:07:27.959Z,5.22
2022-09-14T09:09:58.692Z,5.50
2022-09-14T09:12:38.428Z,5.22
2022-09-14T09:15:16.630Z,4.00
2022-09-14T09:17:48.156Z,4.15
2022-09-14T09:20:20.350Z,5.45
2022-09-14T09:22:53.273Z,4.30
2022-09-14T09:25:24.093Z,4.35
2022-09-14T09:27:52.350Z,4.03
2022-09-14T09:30:20.212Z,3.45
2022-09-14T09:32:49.614Z,4.85
2022-09-14T09:35:50.470Z,6.15
2022-09-14T09:38:24.988Z,5.10
2022-09-14T09:40:56.188Z,4.00
2022-09-14T09:43:38.888Z,4.07
2022-09-14T09:46:13.632Z,3.67
2022-09-14T09:48:46.079Z,3.63
2022-09-14T09:51:18.871Z,4.75
2022-09-14T09:53:52.525Z,4.30
2022-09-14T09:56:23.823Z,4.30
2022-09-14T09:58:52.532Z,4.40
2022-09-14T10:01:24.031Z,4.13
2022-09-14T10:04:05.932Z,4.00
2022-09-14T10:06:41.861Z,3.70
2022-09-14T10:09:15.453Z,3.30
2022-09-14T10:11:43.683Z,3.60
2022-09-14T10:14:24.480Z,3.40
2022-09-14T10:16:53.016Z,3.72
2022-09-14T10:19:26.224Z,4.10
2022-09-14T10:22:24.258Z,2.88
2022-09-14T10:24:56.895Z,4.38
2022-09-14T10:27:38.057Z,4.13
2022-09-14T10:30:09.615Z,5.55
2022-09-14T10:32:39.824Z,3.90
2022-09-14T10:35:15.741Z,3.92
2022-09-14T10:37:58.796Z,3.40
2022-09-14T10:40:36.781Z,4.88
2022-09-14T10:43:14.626Z,3.00
2022-09-14T10:45:50.009Z,3.13
2022-09-14T10:48:40.720Z,3.67
2022-09-14T10:51:29.516Z,6.28
2022-09-14T10:54:05.682Z,4.70
2022-09-14T10:56:44.051Z,5.07
2022-09-14T10:59:27.221Z,3.40
2022-09-14T11:02:25.131Z,6.57
2022-09-14T11:05:12.163Z,6.85
2022-09-14T11:07:50.083Z,5.90
2022-09-14T11:10:24.798Z,4.32
2022-09-14T11:13:07.907Z,5.40
2022-09-14T11:15:43.683Z,5.43
2022-09-14T11:20:53.866Z,5.00
2022-09-14T11:23:31.739Z,8.32
2022-09-14T11:26:04.525Z,6.40
2022-09-14T11:28:35.352Z,7.20
2022-09-14T11:31:07.540Z,4.78
2022-09-14T11:33:41.092Z,8.13
2022-09-14T11:36:16.641Z,6.20
2022-09-14T11:38:50.007Z,7.22
2022-09-14T11:41:25.039Z,9.73
2022-09-14T11:43:57.750Z,5.73
2022-09-14T11:46:31.567Z,6.63
2022-09-14T11:49:08.303Z,8.80
2022-09-14T11:51:41.784Z,6.72
2022-09-14T11:54:16.754Z,6.68
2022-09-14T11:56:49.023Z,5.20
2022-09-14T11:59:36.235Z,8.32
2022-09-14T12:02:52.159Z,6.78
2022-09-14T12:05:33.380Z,5.47
2022-09-14T12:08:35.131Z,6.35
2022-09-14T12:11:24.696Z,6.60
2022-09-14T12:14:31.887Z,7.53
2022-09-14T12:20:37.587Z,5.95
2022-09-14T12:23:08.485Z,5.68
2022-09-14T12:25:38.188Z,4.93
2022-09-14T12:28:29.229Z,5.97
2022-09-14T12:31:09.988Z,6.00
2022-09-14T12:34:06.852Z,6.30
2022-09-14T12:36:59.122Z,7.93
2022-09-14T12:39:28.883Z,6.78
2022-09-14T12:42:28.859Z,5.90
2022-09-14T12:44:58.224Z,6.20
2022-09-14T12:47:59.402Z,5.15
2022-09-14T12:50:32.462Z,6.70
2022-09-14T12:53:19.904Z,5.18
2022-09-14T12:56:04.261Z,5.43
2022-09-14T12:58:46.909Z,4.32
2022-09-14T13:01:26.232Z,4.25
2022-09-14T13:03:56.048Z,4.38
2022-09-14T13:06:25.923Z,4.90
2022-09-14T13:08:57.952Z,4.00
2022-09-14T13:11:31.117Z,6.18
2022-09-14T13:14:00.335Z,5.07
2022-09-14T13:16:42.464Z,5.40
2022-09-14T13:19:22.960Z,4.95
2022-09-14T13:21:53.606Z,3.13
2022-09-14T13:24:25.712Z,3.92
2022-09-14T13:26:54.957Z,3.47
2022-09-14T13:29:24.859Z,3.03
2022-09-14T13:31:56.156Z,3.67
2022-09-14T13:34:29.809Z,3.70
2022-09-14T13:36:58.462Z,3.30
2022-09-14T13:39:30.246Z,3.97
2022-09-14T13:41:59.297Z,3.67
2022-09-14T13:44:31.682Z,3.58
2022-09-14T13:47:04.120Z,3.75
2022-09-14T13:49:32.486Z,3.03
2022-09-14T13:53:00.706Z,5.63
2022-09-14T13:55:28.375Z,2.63
2022-09-14T13:58:14.346Z,6.13
2022-09-14T14:00:52.169Z,3.60
2022-09-14T14:03:30.161Z,5.22
2022-09-14T14:05:58.680Z,6.20
2022-09-14T14:08:31.485Z,4.13
2022-09-14T14:11:01.799Z,4.10
2022-09-14T14:13:32.434Z,5.57
2022-09-14T14:16:18.993Z,4.00
2022-09-14T14:19:03.382Z,3.03
2022-09-14T14:21:33.148Z,4.57
2022-09-14T14:24:26.490Z,5.63
2022-09-14T14:26:56.232Z,4.40
2022-09-14T14:29:24.520Z,4.68
2022-09-14T14:31:52.678Z,4.05
2022-09-14T14:34:25.058Z,4.53
2022-09-14T14:36:53.464Z,3.97
2022-09-14T14:39:23.373Z,5.18
2022-09-14T14:41:52.074Z,5.32
2022-09-14T14:44:23.367Z,6.93
2022-09-14T14:46:51.530Z,5.03
2022-09-14T14:49:20.506Z,7.25
2022-09-14T14:51:49.837Z,7.20
2022-09-14T14:54:18.806Z,7.85
2022-09-14T14:56:48.314Z,6.93
2022-09-14T14:59:24.600Z,6.82
2022-09-14T15:01:53.692Z,5.05
2022-09-14T15:04:21.781Z,7.07
2022-09-14T15:06:51.582Z,6.25
2022-09-14T15:09:22.379Z,7.40
2022-09-14T15:11:50.734Z,7.22
2022-09-14T15:14:22.959Z,9.15
2022-09-14T15:16:57.703Z,7.20
2022-09-14T15:19:26.033Z,7.28
2022-09-14T15:22:00.998Z,7.30
2022-09-14T15:24:30.494Z,7.95
2022-09-14T15:26:58.781Z,9.65
2022-09-14T15:29:26.976Z,9.38
2022-09-14T15:31:55.498Z,7.50
2022-09-14T15:34:23.567Z,8.23
2022-09-14T15:36:53.184Z,7.45
2022-09-14T15:39:25.139Z,8.32
2022-09-14T15:41:53.854Z,6.97
2022-09-14T15:44:22.482Z,6.85
2022-09-14T15:46:51.274Z,10.70
2022-09-14T15:49:21.283Z,8.25
2022-09-14T15:51:51.250Z,8.95
2022-09-14T15:54:19.982Z,11.15
2022-09-14T15:56:51.600Z,10.82
2022-09-14T15:59:20.039Z,10.27
2022-09-14T16:01:48.416Z,14.30
2022-09-14T16:04:16.417Z,12.30
2022-09-14T16:06:44.642Z,12.38
2022-09-14T16:09:14.326Z,8.27
2022-09-14T16:11:42.854Z,8.27
2022-09-14T16:14:12.449Z,9.65
2022-09-14T16:16:40.600Z,11.27
2022-09-14T16:19:10.913Z,10.55
2022-09-14T16:21:39.673Z,7.75
2022-09-14T16:24:10.087Z,7.88
2022-09-14T16:26:39.546Z,6.80
2022-09-14T16:29:11.523Z,8.30
2022-09-14T16:31:42.919Z,9.80
2022-09-14T16:34:14.611Z,36.63
2022-09-14T16:36:43.596Z,6.93
2022-09-14T16:39:13.930Z,49.97
2022-09-14T16:41:42.298Z,33.97
2022-09-14T16:44:14.387Z,44.60
2022-09-14T16:46:44.195Z,6.63
2022-09-14T16:49:12.750Z,10.95
2022-09-14T16:51:41.084Z,13.27
2022-09-14T16:54:09.750Z,14.60
2022-09-14T16:56:39.237Z,11.52
2022-09-14T16:59:07.827Z,8.70
2022-09-14T17:01:38.145Z,4.47
2022-09-14T17:04:09.488Z,5.13
2022-09-14T17:06:39.082Z,5.78
2022-09-14T17:09:09.810Z,4.20
2022-09-14T17:11:39.324Z,3.50
2022-09-14T17:14:07.928Z,3.88
2022-09-14T17:16:36.226Z,4.18
2022-09-14T17:19:05.665Z,2.95
2022-09-14T17:21:36.559Z,3.38
2022-09-14T17:24:06.162Z,5.40
2022-09-14T17:26:35.058Z,3.50
2022-09-14T17:29:03.645Z,5.50
2022-09-14T17:31:33.982Z,3.33
2022-09-14T17:34:03.356Z,2.83
2022-09-14T17:36:31.593Z,2.30
2022-09-14T17:39:02.954Z,3.40
2022-09-14T17:41:33.304Z,1.83
2022-09-14T17:44:04.993Z,4.85
2022-09-14T17:46:33.053Z,2.72
2022-09-14T17:49:04.124Z,2.92
2022-09-14T17:51:36.324Z,5.85
2022-09-14T17:54:05.939Z,4.38
2022-09-14T17:56:33.833Z,2.70
2022-09-14T17:59:04.639Z,4.75
2022-09-14T18:01:33.339Z,3.03
2022-09-14T18:04:04.362Z,7.05
2022-09-14T18:06:34.507Z,4.65
2022-09-14T18:09:05.884Z,5.05
2022-09-14T18:11:34.768Z,5.30
2022-09-14T18:14:04.730Z,3.47
2022-09-14T18:16:33.145Z,6.00
2022-09-14T18:19:01.262Z,4.32
2022-09-14T18:21:29.404Z,4.95
2022-09-14T18:23:57.436Z,5.15
2022-09-14T18:26:27.052Z,6.15
2022-09-14T18:28:56.952Z,5.13
2022-09-14T18:31:25.278Z,6.72
2022-09-14T18:33:55.954Z,8.65
2022-09-14T18:36:24.094Z,11.13
2022-09-14T18:38:53.013Z,8.70
2022-09-14T18:41:21.959Z,10.38
2022-09-14T18:43:53.128Z,11.48
2022-09-14T18:46:25.732Z,12.45
2022-09-14T18:48:56.772Z,16.08
2022-09-14T18:51:24.764Z,18.10
2022-09-14T18:53:57.265Z,16.55
2022-09-14T18:56:25.429Z,15.30
2022-09-14T18:58:55.080Z,13.45
2022-09-14T19:01:23.375Z,19.02
2022-09-14T19:03:51.962Z,17.42
2022-09-14T19:06:20.241Z,19.02
2022-09-14T19:08:48.282Z,20.48
2022-09-14T19:11:18.565Z,24.13
2022-09-14T19:13:47.449Z,20.02
2022-09-14T19:16:18.151Z,21.17
2022-09-14T19:18:47.493Z,22.83
2022-09-14T19:21:21.644Z,22.63
2022-09-14T19:23:57.394Z,21.50
2022-09-14T19:26:25.505Z,18.77
2022-09-14T19:28:53.645Z,16.92
2022-09-14T19:31:24.508Z,20.58
2022-09-14T19:33:52.579Z,16.65
2022-09-14T19:36:23.136Z,16.95
2022-09-14T19:38:52.457Z,13.75
2022-09-14T19:41:21.408Z,14.90
2022-09-14T19:43:50.070Z,11.65
2022-09-14T19:46:20.027Z,10.15
2022-09-14T19:48:49.656Z,14.68
2022-09-14T19:51:19.569Z,11.48
2022-09-14T19:53:48.776Z,9.15
2022-09-14T19:56:18.338Z,8.48
2022-09-14T19:58:49.007Z,10.45
2022-09-14T20:01:18.893Z,8.40
2022-09-14T20:03:48.352Z,5.22
2022-09-14T20:06:21.200Z,6.30
2022-09-14T20:08:50.198Z,5.47
2022-09-14T20:11:20.291Z,6.38
2022-09-14T20:13:49.069Z,6.30
2022-09-14T20:16:19.171Z,5.97
2022-09-14T20:18:48.912Z,8.57
2022-09-14T20:21:20.482Z,5.97
2022-09-14T20:24:14.144Z,8.18
2022-09-14T20:26:37.272Z,8.48
2022-09-14T20:29:05.837Z,4.13
2022-09-14T20:31:33.727Z,1.05
2022-09-14T20:34:02.181Z,1.77
2022-09-14T20:36:32.407Z,0.82
2022-09-14T20:39:00.916Z,1.02
2022-09-14T20:41:31.020Z,2.85
2022-09-14T20:43:59.347Z,0.82
2022-09-14T20:46:30.941Z,1.50
2022-09-14T20:48:59.806Z,2.28
2022-09-14T20:51:28.306Z,0.45
2022-09-14T20:53:57.957Z,2.42
2022-09-14T20:56:27.813Z,3.95
2022-09-14T20:58:57.998Z,1.60
2022-09-14T21:01:27.819Z,0.90
2022-09-14T21:03:56.933Z,1.63
2022-09-14T21:06:27.266Z,2.70
2022-09-14T21:08:55.552Z,2.13
2022-09-14T21:11:27.070Z,1.73
2022-09-14T21:13:56.498Z,3.50
2022-09-14T21:16:27.430Z,1.95
2022-09-14T21:18:59.087Z,2.00
2022-09-14T21:21:27.102Z,3.78
2022-09-14T21:23:55.921Z,1.80
2022-09-14T21:26:26.211Z,1.67
2022-09-14T21:28:56.934Z,1.88
2022-09-14T21:31:26.254Z,2.50
2022-09-14T21:33:57.568Z,2.58
2022-09-14T21:36:28.267Z,3.17
2022-09-14T21:38:57.962Z,5.38
2022-09-14T21:41:29.028Z,3.90
2022-09-14T21:43:57.821Z,3.33
2022-09-14T21:46:26.886Z,4.05
2022-09-14T21:48:55.827Z,3.83
2022-09-14T21:51:25.710Z,3.78
2022-09-14T21:53:55.403Z,3.67
2022-09-14T21:56:24.892Z,2.72
2022-09-14T21:58:56.597Z,2.70
2022-09-14T22:01:25.407Z,1.10
2022-09-14T22:03:54.686Z,1.42
2022-09-14T22:06:24.368Z,1.52
2022-09-14T22:08:53.009Z,2.13
2022-09-14T22:11:24.076Z,1.38
2022-09-14T22:13:55.544Z,1.17
2022-09-14T22:16:26.079Z,0.30
2022-09-14T22:18:56.057Z,0.50
2022-09-14T22:21:27.303Z,1.10
2022-09-14T22:23:57.841Z,1.95
2022-09-14T22:26:26.989Z,2.25
2022-09-14T22:28:56.747Z,3.00
2022-09-14T22:31:25.570Z,2.40
2022-09-14T22:33:55.692Z,3.25
2022-09-14T22:36:24.354Z,3.75
2022-09-14T22:38:53.163Z,3.20
2022-09-14T22:41:22.654Z,6.18
2022-09-14T22:43:51.170Z,3.78
2022-09-14T22:46:22.112Z,5.18
2022-09-14T22:48:51.508Z,5.75
2022-09-14T22:51:21.970Z,4.07
2022-09-14T22:53:49.906Z,4.13
2022-09-14T22:56:19.955Z,3.97
2022-09-14T22:58:48.685Z,2.92
2022-09-14T23:01:18.857Z,3.67
2022-09-14T23:03:48.289Z,2.80
2022-09-14T23:06:16.442Z,3.63
2022-09-14T23:08:47.158Z,4.03
2022-09-14T23:11:15.031Z,3.67
2022-09-14T23:13:44.090Z,3.28
2022-09-14T23:16:13.627Z,2.53
2022-09-14T23:18:42.739Z,1.52
2022-09-14T23:21:13.172Z,1.75
2022-09-14T23:23:41.103Z,1.35
2022-09-14T23:26:11.705Z,1.25
2022-09-14T23:28:40.053Z,1.63
2022-09-14T23:31:08.072Z,1.98
2022-09-14T23:33:36.263Z,3.92
2022-09-14T23:36:04.364Z,4.03
2022-09-14T23:38:35.481Z,5.43
2022-09-14T23:41:03.319Z,14.10
2022-09-14T23:43:31.183Z,33.10
2022-09-14T23:45:59.131Z,23.08
2022-09-14T23:48:27.269Z,22.17
2022-09-14T23:50:59.405Z,28.55
2022-09-14T23:53:27.908Z,26.65
2022-09-14T23:55:57.931Z,25.08
2022-09-14T23:58:26.286Z,27.88
